Time;durP1;ratioP1;P1;durP2;ratioP2;P2;SDS_P1;SDS_P2;PMS_P1;PMS_P2;Temp;Humidity;BMP_temperature;BMP_pressure;BME280_temperature;BME280_humidity;BME280_pressure;Samples;Min_cycle;Max_cycle;Signal;HPM_P1;HPM_P2
2024/03/21 05:38:23;;;;;;;21.30;9.13;;;;;;;;;;5575887;23;20544;-76
2024/03/21 05:40:49;;;;;;;18.13;7.87;;;;;;;;;;4951028;29;20498;-79
2024/03/21 05:43:16;;;;;;;19.20;9.07;;;;;;;;;;4937764;29;20410;-79
2024/03/21 05:45:42;;;;;;;23.93;8.00;;;;;;;;;;4937867;29;20897;-79
2024/03/21 05:48:08;;;;;;;18.03;9.63;;;;;;;;;;4936917;29;20497;-79
2024/03/21 05:50:34;;;;;;;15.20;8.50;;;;;;;;;;4922847;29;20509;-79
2024/03/21 05:53:00;;;;;;;18.00;9.17;;;;;;;;;;4953909;23;20504;-76
2024/03/21 05:55:26;;;;;;;16.23;7.20;;;;;;;;;;4961806;28;20480;-74
2024/03/21 05:57:52;;;;;;;20.43;8.07;;;;;;;;;;4960735;28;20707;-73
2024/03/21 06:00:18;;;;;;;12.37;8.13;;;;;;;;;;4957737;28;20413;-72
2024/03/21 06:02:44;;;;;;;13.47;8.17;;;;;;;;;;4958931;29;21014;-77
2024/03/21 06:05:10;;;;;;;18.30;8.83;;;;;;;;;;4959004;29;20488;-73
2024/03/21 06:07:36;;;;;;;14.20;8.07;;;;;;;;;;4958126;29;20426;-74
2024/03/21 06:10:02;;;;;;;32.27;8.90;;;;;;;;;;4961500;29;20412;-73
2024/03/21 06:12:29;;;;;;;15.33;8.10;;;;;;;;;;4958544;29;20544;-75
2024/03/21 06:14:55;;;;;;;17.97;7.40;;;;;;;;;;4958369;28;20416;-75
2024/03/21 06:17:21;;;;;;;15.93;8.50;;;;;;;;;;4958487;29;20467;-74
2024/03/21 06:19:47;;;;;;;15.60;8.60;;;;;;;;;;4958135;29;21045;-74
2024/03/21 06:22:13;;;;;;;14.67;7.20;;;;;;;;;;4956659;29;20428;-75
2024/03/21 06:24:38;;;;;;;17.83;8.93;;;;;;;;;;4957666;29;20413;-76
2024/03/21 06:27:05;;;;;;;16.23;7.90;;;;;;;;;;4957640;29;20420;-76
2024/03/21 06:29:31;;;;;;;15.63;7.37;;;;;;;;;;4957537;29;20931;-76
2024/03/21 06:31:57;;;;;;;15.20;8.43;;;;;;;;;;4957524;28;20885;-73
2024/03/21 06:34:23;;;;;;;17.40;9.37;;;;;;;;;;4957089;29;20796;-74
2024/03/21 06:36:49;;;;;;;15.07;8.10;;;;;;;;;;4957137;29;20491;-75
2024/03/21 06:39:16;;;;;;;18.03;8.60;;;;;;;;;;4957296;29;20408;-75
2024/03/21 06:41:42;;;;;;;19.27;9.50;;;;;;;;;;4957195;29;20503;-75
2024/03/21 06:44:09;;;;;;;26.30;9.07;;;;;;;;;;4957051;29;20475;-73
2024/03/21 06:46:38;;;;;;;24.23;8.90;;;;;;;;;;4957155;28;20417;-72
2024/03/21 06:49:04;;;;;;;16.30;9.20;;;;;;;;;;4965159;28;20436;-73
2024/03/21 06:51:30;;;;;;;15.60;8.50;;;;;;;;;;4960788;29;20472;-73
2024/03/21 06:53:55;;;;;;;24.13;8.60;;;;;;;;;;4957339;29;20452;-73
2024/03/21 06:56:21;;;;;;;16.70;8.50;;;;;;;;;;4959041;29;20413;-72
2024/03/21 06:58:49;;;;;;;22.50;10.03;;;;;;;;;;4959790;29;20412;-75
2024/03/21 07:01:16;;;;;;;17.27;9.67;;;;;;;;;;4959137;28;20425;-76
2024/03/21 07:03:42;;;;;;;20.13;8.27;;;;;;;;;;4958864;28;20808;-74
2024/03/21 07:06:08;;;;;;;20.07;8.47;;;;;;;;;;4955082;28;20479;-74
2024/03/21 07:08:34;;;;;;;15.83;8.10;;;;;;;;;;4956779;29;20475;-74
2024/03/21 07:11:00;;;;;;;13.87;8.50;;;;;;;;;;4955229;29;20432;-75
2024/03/21 07:13:26;;;;;;;18.73;8.30;;;;;;;;;;4958482;29;20436;-73
2024/03/21 07:15:52;;;;;;;16.10;7.30;;;;;;;;;;4956899;29;20413;-77
2024/03/21 07:18:18;;;;;;;15.30;8.30;;;;;;;;;;4956412;29;20503;-76
2024/03/21 07:20:44;;;;;;;18.13;8.10;;;;;;;;;;4956816;29;20413;-74
2024/03/21 07:23:10;;;;;;;13.10;8.20;;;;;;;;;;4956626;29;20463;-73
2024/03/21 07:25:36;;;;;;;16.33;7.67;;;;;;;;;;4955366;29;20435;-73
2024/03/21 07:28:03;;;;;;;18.77;9.10;;;;;;;;;;4954960;29;20854;-75
2024/03/21 07:30:29;;;;;;;15.37;8.23;;;;;;;;;;4955311;29;20436;-75
2024/03/21 07:32:55;;;;;;;16.00;8.70;;;;;;;;;;4956036;29;20891;-74
2024/03/21 07:35:21;;;;;;;17.80;9.10;;;;;;;;;;4956101;29;20404;-75
2024/03/21 07:37:47;;;;;;;18.67;9.73;;;;;;;;;;4956522;29;20413;-76
2024/03/21 07:40:13;;;;;;;19.40;9.43;;;;;;;;;;4955203;29;20425;-76
2024/03/21 07:42:39;;;;;;;26.30;9.43;;;;;;;;;;4956252;29;20940;-74
2024/03/21 07:45:08;;;;;;;14.07;9.10;;;;;;;;;;4956253;29;20420;-75
2024/03/21 07:47:37;;;;;;;21.60;10.37;;;;;;;;;;4959308;28;20464;-76
2024/03/21 07:50:04;;;;;;;16.73;9.80;;;;;;;;;;4956751;29;20413;-73
2024/03/21 07:52:30;;;;;;;27.20;10.77;;;;;;;;;;4956099;28;20472;-76
2024/03/21 07:54:55;;;;;;;22.40;9.80;;;;;;;;;;4956259;29;20408;-73
2024/03/21 07:57:21;;;;;;;18.90;8.80;;;;;;;;;;4955994;29;20840;-75
2024/03/21 07:59:47;;;;;;;18.87;9.80;;;;;;;;;;4956058;29;20974;-75
2024/03/21 08:02:14;;;;;;;24.73;10.67;;;;;;;;;;4956138;29;20412;-75
2024/03/21 08:04:40;;;;;;;31.10;10.73;;;;;;;;;;4956417;28;20451;-75
2024/03/21 08:07:06;;;;;;;29.67;11.20;;;;;;;;;;4955754;28;20409;-75
2024/03/21 08:09:32;;;;;;;24.63;11.43;;;;;;;;;;4956120;29;20499;-77
2024/03/21 08:11:58;;;;;;;29.63;11.40;;;;;;;;;;4963296;29;20460;-74
2024/03/21 08:14:24;;;;;;;26.33;11.20;;;;;;;;;;4973108;29;20505;-75
2024/03/21 08:16:50;;;;;;;21.83;10.80;;;;;;;;;;4972305;28;20413;-76
2024/03/21 08:19:16;;;;;;;26.20;11.60;;;;;;;;;;4960414;29;20420;-76
2024/03/21 08:21:42;;;;;;;24.47;11.33;;;;;;;;;;4956005;29;20408;-76
2024/03/21 08:24:08;;;;;;;27.60;12.07;;;;;;;;;;4955811;29;20928;-75
2024/03/21 08:26:34;;;;;;;35.27;11.60;;;;;;;;;;4958747;29;20433;-73
2024/03/21 08:29:00;;;;;;;22.77;11.37;;;;;;;;;;4970940;29;20408;-74
2024/03/21 08:31:25;;;;;;;37.80;11.67;;;;;;;;;;4970893;29;20475;-73
2024/03/21 08:33:53;;;;;;;28.40;12.10;;;;;;;;;;4971125;29;20441;-75
2024/03/21 08:36:19;;;;;;;32.20;13.10;;;;;;;;;;4971259;28;20428;-75
2024/03/21 08:38:45;;;;;;;27.90;12.00;;;;;;;;;;4970060;29;20413;-75
2024/03/21 08:41:11;;;;;;;32.70;11.60;;;;;;;;;;4968708;29;20497;-75
2024/03/21 08:43:37;;;;;;;22.50;12.40;;;;;;;;;;4970872;29;20943;-75
2024/03/21 08:46:03;;;;;;;26.93;12.20;;;;;;;;;;4970415;29;20432;-75
2024/03/21 08:48:29;;;;;;;25.00;11.60;;;;;;;;;;4971002;29;20416;-76
2024/03/21 08:50:54;;;;;;;19.87;10.77;;;;;;;;;;4970492;29;20423;-75
2024/03/21 08:53:20;;;;;;;31.33;11.47;;;;;;;;;;4969490;29;20454;-73
2024/03/21 08:55:46;;;;;;;33.10;11.47;;;;;;;;;;4969934;29;20431;-74
2024/03/21 08:58:12;;;;;;;34.60;11.10;;;;;;;;;;4971475;29;20401;-75
2024/03/21 09:00:40;;;;;;;25.50;10.40;;;;;;;;;;4970674;29;20404;-75
2024/03/21 09:03:08;;;;;;;28.47;11.43;;;;;;;;;;4969843;28;20951;-74
2024/03/21 09:05:33;;;;;;;24.37;9.87;;;;;;;;;;4968424;28;20413;-73
2024/03/21 09:07:59;;;;;;;31.93;11.63;;;;;;;;;;4967741;29;20408;-74
2024/03/21 09:10:25;;;;;;;21.60;10.10;;;;;;;;;;4968867;29;20683;-75
2024/03/21 09:12:51;;;;;;;35.63;13.30;;;;;;;;;;4969975;29;20468;-74
2024/03/21 09:15:18;;;;;;;25.40;10.70;;;;;;;;;;4967176;29;20455;-74
2024/03/21 09:17:45;;;;;;;22.03;9.80;;;;;;;;;;4962634;29;20459;-74
2024/03/21 09:20:11;;;;;;;28.70;12.00;;;;;;;;;;4955974;28;20905;-77
2024/03/21 09:22:37;;;;;;;20.40;10.40;;;;;;;;;;4959864;29;20493;-76
2024/03/21 09:25:03;;;;;;;28.50;11.40;;;;;;;;;;4960594;29;20971;-74
2024/03/21 09:27:30;;;;;;;19.40;9.77;;;;;;;;;;4964266;28;20424;-75
2024/03/21 09:29:56;;;;;;;31.07;9.37;;;;;;;;;;4956246;29;20420;-76
2024/03/21 09:32:22;;;;;;;24.97;9.57;;;;;;;;;;4954494;29;20585;-76
2024/03/21 09:34:52;;;;;;;20.17;8.90;;;;;;;;;;4953315;29;20571;-74
2024/03/21 09:37:18;;;;;;;29.40;10.43;;;;;;;;;;4954564;29;20419;-75
2024/03/21 09:39:44;;;;;;;21.40;9.80;;;;;;;;;;4957619;29;20413;-75
2024/03/21 09:42:15;;;;;;;20.83;9.50;;;;;;;;;;4958721;29;20423;-76
2024/03/21 09:44:43;;;;;;;21.10;10.50;;;;;;;;;;4958277;29;20413;-77
2024/03/21 09:47:11;;;;;;;20.50;8.50;;;;;;;;;;4956286;29;20425;-76
2024/03/21 09:49:37;;;;;;;14.90;7.70;;;;;;;;;;4955982;29;20440;-75
2024/03/21 09:52:03;;;;;;;10.90;5.97;;;;;;;;;;4954076;29;20967;-77
2024/03/21 09:54:30;;;;;;;10.57;6.17;;;;;;;;;;4954815;29;20496;-76
2024/03/21 09:56:56;;;;;;;12.07;6.17;;;;;;;;;;4954512;28;20904;-77
2024/03/21 09:59:22;;;;;;;12.27;6.60;;;;;;;;;;4954903;29;20448;-75
2024/03/21 10:01:48;;;;;;;13.80;6.00;;;;;;;;;;4954130;29;20600;-76
2024/03/21 10:04:15;;;;;;;12.60;6.30;;;;;;;;;;4955160;29;20495;-77
2024/03/21 10:06:44;;;;;;;14.40;6.80;;;;;;;;;;4954602;28;20552;-75
2024/03/21 10:09:11;;;;;;;11.97;6.37;;;;;;;;;;4955228;29;20409;-73
2024/03/21 10:11:37;;;;;;;14.93;8.10;;;;;;;;;;4953413;29;20460;-73
2024/03/21 10:14:03;;;;;;;18.27;9.27;;;;;;;;;;4954437;29;20933;-74
2024/03/21 10:16:29;;;;;;;17.80;8.93;;;;;;;;;;4952811;29;20492;-75
2024/03/21 10:18:55;;;;;;;15.80;9.50;;;;;;;;;;4954272;29;20452;-74
2024/03/21 10:21:24;;;;;;;20.33;10.90;;;;;;;;;;4953292;29;20550;-75
2024/03/21 10:23:50;;;;;;;20.43;10.40;;;;;;;;;;4954966;29;20459;-75
2024/03/21 10:26:17;;;;;;;23.53;10.90;;;;;;;;;;4954982;29;20979;-77
2024/03/21 10:28:43;;;;;;;16.40;9.03;;;;;;;;;;4955310;29;20452;-76
2024/03/21 10:31:11;;;;;;;18.40;10.90;;;;;;;;;;4955501;29;20459;-75
2024/03/21 10:33:38;;;;;;;22.30;11.60;;;;;;;;;;4953267;29;20819;-76
2024/03/21 10:36:04;;;;;;;24.40;11.30;;;;;;;;;;4954406;29;20417;-75
2024/03/21 10:38:30;;;;;;;20.23;10.00;;;;;;;;;;4955093;29;20474;-75
2024/03/21 10:40:57;;;;;;;20.43;11.77;;;;;;;;;;4958144;28;20408;-75
2024/03/21 10:43:26;;;;;;;23.33;11.60;;;;;;;;;;4959401;29;20498;-74
2024/03/21 10:45:54;;;;;;;17.43;10.13;;;;;;;;;;4960135;29;20408;-75
2024/03/21 10:48:40;;;;;;;18.43;10.83;;;;;;;;;;4960464;28;20415;-76
2024/03/21 10:51:13;;;;;;;17.33;10.63;;;;;;;;;;4959176;29;20817;-76
2024/03/21 10:53:39;;;;;;;18.80;9.60;;;;;;;;;;4960368;29;20459;-76
2024/03/21 10:56:09;;;;;;;16.37;9.63;;;;;;;;;;4958108;28;20472;-75
2024/03/21 10:58:42;;;;;;;16.50;9.93;;;;;;;;;;4958061;29;20920;-77
2024/03/21 11:01:08;;;;;;;18.83;8.17;;;;;;;;;;4957863;28;20504;-76
2024/03/21 11:03:47;;;;;;;14.53;8.10;;;;;;;;;;4957836;28;20436;-75
2024/03/21 11:06:13;;;;;;;24.40;9.30;;;;;;;;;;4958538;28;20416;-75
2024/03/21 11:08:51;;;;;;;20.30;8.83;;;;;;;;;;4957474;28;20409;-77
2024/03/21 11:11:16;;;;;;;12.40;8.73;;;;;;;;;;4955882;29;20555;-76
2024/03/21 11:13:43;;;;;;;16.23;8.83;;;;;;;;;;4957593;29;20467;-75
2024/03/21 11:16:09;;;;;;;13.50;8.53;;;;;;;;;;4957374;29;20412;-75
2024/03/21 11:18:35;;;;;;;13.97;8.20;;;;;;;;;;4956197;29;20873;-76
2024/03/21 11:21:01;;;;;;;16.77;8.97;;;;;;;;;;4957012;29;20909;-75
2024/03/21 11:23:29;;;;;;;16.73;10.10;;;;;;;;;;4957243;29;20437;-76
2024/03/21 11:25:55;;;;;;;18.17;10.87;;;;;;;;;;4957130;28;20405;-75
2024/03/21 11:28:21;;;;;;;17.37;11.00;;;;;;;;;;4956778;29;20408;-76
2024/03/21 11:30:47;;;;;;;20.90;13.50;;;;;;;;;;4956166;29;20417;-75
2024/03/21 11:33:13;;;;;;;29.10;13.40;;;;;;;;;;4958033;29;20472;-76
2024/03/21 11:35:42;;;;;;;28.10;15.30;;;;;;;;;;4956915;29;20409;-76
2024/03/21 11:38:08;;;;;;;23.63;13.17;;;;;;;;;;4956670;29;20412;-75
2024/03/21 11:40:35;;;;;;;24.00;14.07;;;;;;;;;;4956506;29;20409;-74
2024/03/21 11:43:05;;;;;;;26.67;14.30;;;;;;;;;;4956521;29;20938;-75
2024/03/21 11:45:31;;;;;;;21.97;13.47;;;;;;;;;;4957019;29;20944;-75
2024/03/21 11:48:10;;;;;;;26.17;14.17;;;;;;;;;;4957329;28;20520;-75
2024/03/21 11:50:36;;;;;;;24.13;13.47;;;;;;;;;;4966510;28;20441;-77
2024/03/21 11:53:03;;;;;;;21.60;13.47;;;;;;;;;;5035421;23;20503;-79
2024/03/21 11:55:29;;;;;;;24.40;12.97;;;;;;;;;;4945585;29;20417;-79
2024/03/21 11:57:55;;;;;;;20.47;12.43;;;;;;;;;;4944172;29;20408;-79
2024/03/21 12:00:22;;;;;;;27.77;11.73;;;;;;;;;;4943893;29;20448;-80
2024/03/21 12:02:49;;;;;;;19.30;12.10;;;;;;;;;;4946143;29;20956;-79
2024/03/21 12:05:15;;;;;;;20.53;12.40;;;;;;;;;;4961659;29;20416;-79
2024/03/21 12:07:41;;;;;;;17.83;11.30;;;;;;;;;;4944097;29;20420;-79
2024/03/21 12:10:08;;;;;;;23.53;12.30;;;;;;;;;;4961631;29;20456;-80
2024/03/21 12:12:34;;;;;;;19.93;12.83;;;;;;;;;;4946573;29;20472;-79
2024/03/21 12:15:01;;;;;;;19.10;12.33;;;;;;;;;;4945157;29;20468;-79
2024/03/21 12:17:27;;;;;;;27.30;14.40;;;;;;;;;;4961877;29;20432;-79
2024/03/21 12:19:53;;;;;;;18.27;12.50;;;;;;;;;;4942851;29;20412;-79
2024/03/21 12:22:19;;;;;;;22.37;11.67;;;;;;;;;;4943034;29;20479;-79
2024/03/21 12:24:45;;;;;;;17.60;12.13;;;;;;;;;;4959529;29;20419;-79
2024/03/21 12:27:11;;;;;;;35.23;13.23;;;;;;;;;;4959793;29;20775;-79
2024/03/21 12:29:37;;;;;;;26.63;13.20;;;;;;;;;;4961373;29;20425;-79
2024/03/21 12:32:04;;;;;;;19.37;10.33;;;;;;;;;;4961689;29;20562;-79
2024/03/21 12:34:29;;;;;;;21.07;13.70;;;;;;;;;;4943303;29;20821;-79
2024/03/21 12:36:55;;;;;;;19.80;13.27;;;;;;;;;;4960903;29;20430;-79
2024/03/21 12:39:21;;;;;;;18.07;12.40;;;;;;;;;;4946026;29;20420;-79
2024/03/21 12:41:47;;;;;;;17.37;11.40;;;;;;;;;;4946310;29;20428;-79
2024/03/21 12:44:14;;;;;;;22.50;13.00;;;;;;;;;;4945579;29;20456;-79
2024/03/21 12:46:40;;;;;;;15.87;11.63;;;;;;;;;;4943735;29;20507;-79
2024/03/21 12:49:06;;;;;;;24.43;13.63;;;;;;;;;;4959846;29;20427;-79
2024/03/21 12:51:32;;;;;;;16.80;12.10;;;;;;;;;;4942157;29;20464;-79
2024/03/21 12:53:58;;;;;;;19.87;11.77;;;;;;;;;;4942223;29;20495;-79
2024/03/21 12:56:24;;;;;;;18.40;12.60;;;;;;;;;;4941642;29;20428;-79
2024/03/21 12:58:50;;;;;;;21.53;13.13;;;;;;;;;;4958912;29;20526;-79
2024/03/21 13:01:16;;;;;;;24.07;13.10;;;;;;;;;;4941985;29;20417;-79
2024/03/21 13:03:42;;;;;;;18.33;11.90;;;;;;;;;;4941932;29;20520;-78
2024/03/21 13:06:08;;;;;;;26.87;12.80;;;;;;;;;;4959767;29;20475;-78
2024/03/21 13:08:34;;;;;;;23.07;14.50;;;;;;;;;;4958947;29;20421;-79
2024/03/21 13:11:00;;;;;;;19.57;12.53;;;;;;;;;;4942344;29;20475;-78
2024/03/21 13:13:26;;;;;;;15.73;11.20;;;;;;;;;;4957341;29;20437;-78
2024/03/21 13:15:52;;;;;;;21.97;11.80;;;;;;;;;;4956818;29;20784;-79
2024/03/21 13:18:18;;;;;;;17.47;10.87;;;;;;;;;;4957307;29;20834;-78
2024/03/21 13:20:44;;;;;;;14.10;10.10;;;;;;;;;;4957095;29;20417;-78
2024/03/21 13:23:10;;;;;;;26.93;12.03;;;;;;;;;;4956658;29;20443;-78
2024/03/21 13:25:36;;;;;;;17.63;10.53;;;;;;;;;;4938675;29;20432;-78
2024/03/21 13:28:03;;;;;;;18.63;10.03;;;;;;;;;;4938242;29;20417;-78
2024/03/21 13:30:30;;;;;;;16.50;10.57;;;;;;;;;;4956610;29;20903;-78
2024/03/21 13:32:56;;;;;;;25.27;13.50;;;;;;;;;;4956384;29;20826;-79
2024/03/21 13:35:22;;;;;;;18.33;11.37;;;;;;;;;;4958053;29;20409;-78
2024/03/21 13:37:49;;;;;;;20.80;12.67;;;;;;;;;;4964389;29;20438;-78
2024/03/21 13:40:18;;;;;;;22.80;13.47;;;;;;;;;;4958074;29;20445;-78
2024/03/21 13:42:44;;;;;;;26.40;15.73;;;;;;;;;;4955242;29;20445;-78
2024/03/21 13:45:10;;;;;;;30.10;17.37;;;;;;;;;;4955565;29;20884;-78
2024/03/21 13:47:37;;;;;;;32.90;17.17;;;;;;;;;;4938154;29;20464;-78
2024/03/21 13:50:07;;;;;;;44.63;24.33;;;;;;;;;;4937965;29;20428;-78
2024/03/21 13:52:33;;;;;;;49.53;26.60;;;;;;;;;;4937195;29;20983;-78
2024/03/21 13:54:59;;;;;;;65.53;32.23;;;;;;;;;;4954494;29;20408;-78
2024/03/21 13:57:28;;;;;;;57.27;30.53;;;;;;;;;;4955676;29;20417;-78
2024/03/21 13:59:55;;;;;;;71.53;34.23;;;;;;;;;;4939015;29;20452;-78
2024/03/21 14:02:22;;;;;;;65.07;34.77;;;;;;;;;;4938711;29;20460;-78
2024/03/21 14:04:48;;;;;;;74.33;33.60;;;;;;;;;;4955772;29;20427;-78
2024/03/21 14:07:14;;;;;;;74.33;33.37;;;;;;;;;;4937353;29;20428;-78
2024/03/21 14:09:40;;;;;;;64.00;34.57;;;;;;;;;;4955230;29;20420;-78
2024/03/21 14:12:07;;;;;;;60.13;31.20;;;;;;;;;;4955514;29;20479;-78
2024/03/21 14:14:33;;;;;;;72.03;34.37;;;;;;;;;;4955482;28;20479;-79
2024/03/21 14:16:59;;;;;;;66.20;35.17;;;;;;;;;;4942142;29;21004;-78
2024/03/21 14:19:25;;;;;;;70.70;34.80;;;;;;;;;;4942054;29;20939;-78
2024/03/21 14:21:51;;;;;;;67.33;34.10;;;;;;;;;;4941923;29;20431;-78
2024/03/21 14:24:17;;;;;;;68.37;35.33;;;;;;;;;;4944360;29;20451;-79
2024/03/21 14:26:42;;;;;;;73.87;35.97;;;;;;;;;;4958459;29;20508;-78
2024/03/21 14:29:09;;;;;;;70.50;35.33;;;;;;;;;;4959215;29;20412;-78
2024/03/21 14:31:35;;;;;;;67.07;34.07;;;;;;;;;;4958285;29;20974;-78
2024/03/21 14:34:06;;;;;;;64.33;31.47;;;;;;;;;;4958880;29;20487;-78
2024/03/21 14:36:32;;;;;;;58.07;31.87;;;;;;;;;;4942402;29;20417;-78
2024/03/21 14:38:58;;;;;;;59.20;29.03;;;;;;;;;;4949203;29;20416;-78
2024/03/21 14:41:24;;;;;;;57.00;29.03;;;;;;;;;;4979476;29;20417;-78
2024/03/21 14:43:50;;;;;;;58.23;29.37;;;;;;;;;;4961539;29;20449;-78
2024/03/21 14:46:16;;;;;;;53.53;28.30;;;;;;;;;;4976542;29;20480;-78
2024/03/21 14:48:42;;;;;;;55.63;28.43;;;;;;;;;;4941931;29;20888;-78
2024/03/21 14:51:08;;;;;;;57.77;28.10;;;;;;;;;;4960948;29;20923;-78
2024/03/21 14:53:34;;;;;;;50.37;26.53;;;;;;;;;;4957649;29;20456;-78
2024/03/21 14:56:00;;;;;;;52.47;24.53;;;;;;;;;;4941356;29;20480;-78
2024/03/21 14:58:26;;;;;;;51.33;24.00;;;;;;;;;;4941195;29;20409;-78
2024/03/21 15:00:52;;;;;;;46.23;21.03;;;;;;;;;;4946909;29;20847;-78
2024/03/21 15:03:18;;;;;;;41.17;19.60;;;;;;;;;;4947375;29;20441;-78
2024/03/21 15:05:44;;;;;;;36.70;19.67;;;;;;;;;;4958876;29;20828;-78
2024/03/21 15:08:10;;;;;;;38.33;17.97;;;;;;;;;;4941718;29;20432;-78
2024/03/21 15:10:36;;;;;;;31.03;17.10;;;;;;;;;;4940442;29;20413;-78
2024/03/21 15:13:02;;;;;;;38.07;16.63;;;;;;;;;;4940570;29;21000;-78
2024/03/21 15:15:28;;;;;;;30.80;15.90;;;;;;;;;;4960516;29;20424;-79
2024/03/21 15:17:54;;;;;;;29.60;14.97;;;;;;;;;;4961328;29;20444;-78
2024/03/21 15:20:20;;;;;;;27.90;13.90;;;;;;;;;;4944004;29;20928;-78
2024/03/21 15:22:46;;;;;;;26.60;13.40;;;;;;;;;;4940908;29;20451;-78
2024/03/21 15:25:13;;;;;;;25.87;12.07;;;;;;;;;;4959885;28;20444;-78
2024/03/21 15:27:41;;;;;;;20.90;11.57;;;;;;;;;;4944635;29;20433;-78
2024/03/21 15:30:08;;;;;;;20.03;11.63;;;;;;;;;;4959807;29;20420;-78
2024/03/21 15:32:34;;;;;;;22.63;10.97;;;;;;;;;;4957654;29;20559;-78
2024/03/21 15:35:00;;;;;;;20.20;10.37;;;;;;;;;;4960600;29;20455;-78
2024/03/21 15:37:26;;;;;;;18.33;10.23;;;;;;;;;;4959283;29;20443;-78
2024/03/21 15:39:52;;;;;;;20.73;10.53;;;;;;;;;;4958511;29;20424;-78
2024/03/21 15:42:18;;;;;;;20.50;10.07;;;;;;;;;;4941530;29;20425;-78
2024/03/21 15:44:45;;;;;;;21.93;11.37;;;;;;;;;;4964224;29;20429;-78
2024/03/21 15:47:11;;;;;;;25.10;11.53;;;;;;;;;;4944669;29;20468;-78
2024/03/21 15:49:37;;;;;;;19.40;10.73;;;;;;;;;;4941031;29;20421;-78
2024/03/21 15:52:03;;;;;;;18.70;11.43;;;;;;;;;;4957655;29;20567;-78
2024/03/21 15:54:29;;;;;;;21.60;12.00;;;;;;;;;;4939889;29;20468;-78
2024/03/21 15:56:55;;;;;;;19.23;11.87;;;;;;;;;;4957352;29;20440;-79
2024/03/21 15:59:21;;;;;;;20.70;10.80;;;;;;;;;;4957086;29;20415;-78
2024/03/21 16:01:47;;;;;;;21.80;12.93;;;;;;;;;;4957036;29;20436;-78
2024/03/21 16:04:13;;;;;;;25.43;12.67;;;;;;;;;;4957001;29;20479;-78
2024/03/21 16:06:39;;;;;;;23.43;10.83;;;;;;;;;;4956979;29;20447;-78
2024/03/21 16:09:06;;;;;;;22.87;10.97;;;;;;;;;;4939422;29;20846;-79
2024/03/21 16:11:33;;;;;;;17.53;9.83;;;;;;;;;;4962868;29;20475;-78
2024/03/21 16:13:58;;;;;;;16.50;9.50;;;;;;;;;;4946526;29;20455;-78
2024/03/21 16:16:24;;;;;;;17.57;10.23;;;;;;;;;;4963886;29;20776;-78
2024/03/21 16:18:51;;;;;;;24.30;10.50;;;;;;;;;;4946087;29;20786;-78
2024/03/21 16:21:16;;;;;;;18.93;9.83;;;;;;;;;;4945277;29;20428;-79
2024/03/21 16:23:42;;;;;;;15.37;9.57;;;;;;;;;;4940931;29;20440;-78
2024/03/21 16:26:08;;;;;;;18.57;9.23;;;;;;;;;;4956809;29;20421;-78
2024/03/21 16:28:34;;;;;;;16.70;9.80;;;;;;;;;;4958235;29;20440;-78
2024/03/21 16:31:02;;;;;;;16.37;10.00;;;;;;;;;;4962584;29;20490;-78
2024/03/21 16:33:28;;;;;;;19.10;10.03;;;;;;;;;;4962132;29;20850;-78
2024/03/21 16:35:54;;;;;;;23.23;10.00;;;;;;;;;;4962363;29;20419;-78
2024/03/21 16:38:24;;;;;;;16.17;9.00;;;;;;;;;;4958314;28;20496;-78
2024/03/21 16:40:50;;;;;;;22.70;9.20;;;;;;;;;;4956466;29;20448;-79
2024/03/21 16:43:16;;;;;;;15.23;9.00;;;;;;;;;;4955847;29;20437;-78
2024/03/21 16:45:42;;;;;;;18.10;8.30;;;;;;;;;;4938741;29;20417;-78
2024/03/21 16:48:08;;;;;;;20.87;9.63;;;;;;;;;;4956051;29;20421;-79
2024/03/21 16:50:34;;;;;;;17.00;8.70;;;;;;;;;;4938081;29;20432;-78
2024/03/21 16:53:01;;;;;;;18.90;8.67;;;;;;;;;;4940202;29;20476;-79
2024/03/21 16:55:27;;;;;;;21.40;10.00;;;;;;;;;;4959338;29;20408;-78
2024/03/21 16:57:53;;;;;;;16.90;9.37;;;;;;;;;;4940519;29;20523;-79
2024/03/21 17:00:26;;;;;;;15.27;8.40;;;;;;;;;;4956992;29;20412;-79
2024/03/21 17:02:52;;;;;;;18.50;8.03;;;;;;;;;;4958725;29;20437;-79
2024/03/21 17:05:18;;;;;;;17.83;8.33;;;;;;;;;;4941840;29;20519;-79
2024/03/21 17:07:44;;;;;;;16.83;9.33;;;;;;;;;;4941048;29;20975;-79
2024/03/21 17:10:10;;;;;;;16.97;8.70;;;;;;;;;;4942856;29;20431;-80
2024/03/21 17:12:36;;;;;;;15.70;8.63;;;;;;;;;;4967626;29;20467;-79
2024/03/21 17:15:02;;;;;;;15.03;8.97;;;;;;;;;;4948088;29;20428;-79
2024/03/21 17:17:28;;;;;;;19.13;9.03;;;;;;;;;;4944089;29;20413;-79
2024/03/21 17:19:54;;;;;;;16.93;9.67;;;;;;;;;;4942230;29;20492;-79
2024/03/21 17:22:21;;;;;;;15.17;7.90;;;;;;;;;;4958324;29;20488;-79
2024/03/21 17:24:48;;;;;;;13.90;8.13;;;;;;;;;;4958390;29;20421;-81
2024/03/21 17:27:14;;;;;;;18.17;7.80;;;;;;;;;;4960869;29;20885;-79
2024/03/21 17:29:39;;;;;;;16.83;9.03;;;;;;;;;;4957516;29;20421;-79
2024/03/21 17:32:05;;;;;;;17.27;8.43;;;;;;;;;;4940956;29;20552;-79
2024/03/21 17:34:31;;;;;;;17.77;8.90;;;;;;;;;;4940945;29;20978;-78
2024/03/21 17:36:57;;;;;;;21.17;8.40;;;;;;;;;;4957872;29;20421;-79
2024/03/21 17:39:23;;;;;;;13.47;7.73;;;;;;;;;;4941224;29;20539;-79
2024/03/21 17:41:49;;;;;;;15.57;8.27;;;;;;;;;;4941016;29;20483;-79
2024/03/21 17:44:15;;;;;;;14.70;8.17;;;;;;;;;;4941427;29;20436;-79
2024/03/21 17:46:41;;;;;;;14.93;8.37;;;;;;;;;;4958459;29;20424;-79
2024/03/21 17:49:07;;;;;;;15.60;9.60;;;;;;;;;;4959200;28;20413;-80
2024/03/21 17:51:33;;;;;;;15.50;7.23;;;;;;;;;;4958590;29;20457;-76
2024/03/21 17:54:01;;;;;;;18.93;8.77;;;;;;;;;;4971650;23;21032;-77
2024/03/21 17:56:27;;;;;;;11.37;6.70;;;;;;;;;;4964275;28;20440;-77
2024/03/21 17:58:53;;;;;;;13.77;7.70;;;;;;;;;;4959266;29;20433;-79
2024/03/21 18:01:18;;;;;;;14.90;7.30;;;;;;;;;;4964676;29;20435;-76
2024/03/21 18:03:45;;;;;;;14.07;7.70;;;;;;;;;;4949118;29;20485;-75
2024/03/21 18:06:11;;;;;;;18.13;8.20;;;;;;;;;;4936397;29;20417;-77
2024/03/21 18:08:37;;;;;;;18.57;9.60;;;;;;;;;;4928614;29;20445;-78
2024/03/21 18:11:03;;;;;;;14.07;7.80;;;;;;;;;;4925531;29;20422;-77
2024/03/21 18:13:29;;;;;;;10.20;6.80;;;;;;;;;;4930866;29;20993;-77
2024/03/21 18:15:55;;;;;;;20.80;9.80;;;;;;;;;;4936979;29;21046;-76
2024/03/21 18:18:21;;;;;;;16.40;8.20;;;;;;;;;;4925322;29;20457;-77
2024/03/21 18:20:47;;;;;;;20.13;8.70;;;;;;;;;;4927629;29;20789;-79
2024/03/21 18:23:14;;;;;;;19.53;9.40;;;;;;;;;;4927983;29;20439;-78
2024/03/21 18:25:43;;;;;;;18.90;9.47;;;;;;;;;;4930555;29;20429;-77
2024/03/21 18:28:11;;;;;;;20.13;9.00;;;;;;;;;;4934887;29;20450;-77
2024/03/21 18:30:37;;;;;;;18.60;9.23;;;;;;;;;;4936328;29;20481;-74
2024/03/21 18:33:05;;;;;;;19.13;10.37;;;;;;;;;;4923685;29;20994;-77
2024/03/21 18:35:32;;;;;;;17.77;9.50;;;;;;;;;;4943692;29;20422;-76
2024/03/21 18:37:58;;;;;;;15.23;9.37;;;;;;;;;;4945261;29;20421;-77
2024/03/21 18:40:24;;;;;;;21.63;10.77;;;;;;;;;;4944287;29;20414;-76
2024/03/21 18:42:50;;;;;;;24.23;10.60;;;;;;;;;;4943556;29;20470;-77
2024/03/21 18:45:16;;;;;;;19.53;9.67;;;;;;;;;;4944914;29;20422;-75
2024/03/21 18:47:42;;;;;;;23.23;10.20;;;;;;;;;;4932037;29;20513;-77
2024/03/21 18:50:08;;;;;;;17.33;9.50;;;;;;;;;;4925748;29;20410;-77
2024/03/21 18:52:35;;;;;;;19.43;10.07;;;;;;;;;;4922416;29;20535;-78
2024/03/21 18:55:01;;;;;;;19.73;8.60;;;;;;;;;;4918088;29;20961;-77
2024/03/21 18:57:27;;;;;;;22.07;9.87;;;;;;;;;;4931327;29;20421;-77
2024/03/21 18:59:53;;;;;;;19.00;10.30;;;;;;;;;;4939479;29;20500;-76
2024/03/21 19:02:19;;;;;;;25.00;10.47;;;;;;;;;;4941763;29;20425;-78
2024/03/21 19:04:45;;;;;;;21.93;9.43;;;;;;;;;;4923498;29;20472;-78
2024/03/21 19:07:11;;;;;;;23.20;10.90;;;;;;;;;;4926458;29;20426;-78
2024/03/21 19:09:37;;;;;;;26.50;13.10;;;;;;;;;;4941924;29;20418;-80
2024/03/21 19:12:04;;;;;;;23.00;11.70;;;;;;;;;;4947257;29;20472;-81
2024/03/21 19:14:30;;;;;;;26.70;12.20;;;;;;;;;;4943011;29;20894;-78
2024/03/21 19:16:56;;;;;;;27.67;12.17;;;;;;;;;;4944394;29;20485;-79
2024/03/21 19:19:22;;;;;;;30.83;12.10;;;;;;;;;;4943673;29;20433;-79
2024/03/21 19:21:48;;;;;;;22.80;12.93;;;;;;;;;;4927238;29;20421;-79
2024/03/21 19:24:14;;;;;;;24.40;11.77;;;;;;;;;;4946135;29;20444;-80
2024/03/21 19:26:41;;;;;;;21.87;12.77;;;;;;;;;;4949536;29;20437;-76
2024/03/21 19:29:07;;;;;;;31.30;12.70;;;;;;;;;;4949197;29;20421;-78
2024/03/21 19:31:36;;;;;;;27.33;13.20;;;;;;;;;;4931846;29;20474;-80
2024/03/21 19:34:02;;;;;;;26.00;14.00;;;;;;;;;;4949372;29;20442;-79
2024/03/21 19:36:28;;;;;;;24.90;13.83;;;;;;;;;;4943812;29;20445;-77
2024/03/21 19:38:54;;;;;;;24.93;12.87;;;;;;;;;;4936309;29;20445;-76
2024/03/21 19:41:20;;;;;;;23.70;12.30;;;;;;;;;;4929204;29;20496;-76
2024/03/21 19:43:46;;;;;;;20.83;11.97;;;;;;;;;;4929125;29;20453;-76
2024/03/21 19:46:14;;;;;;;27.20;12.80;;;;;;;;;;4925740;29;20426;-77
2024/03/21 19:48:40;;;;;;;24.37;12.37;;;;;;;;;;4923056;29;20422;-78
2024/03/21 19:51:06;;;;;;;26.17;14.20;;;;;;;;;;4932604;29;20527;-75
2024/03/21 19:53:32;;;;;;;23.70;13.10;;;;;;;;;;4924775;29;20478;-75
2024/03/21 19:56:03;;;;;;;27.30;11.77;;;;;;;;;;4937573;29;20407;-75